sensor_id;sensor_type;location;lat;lon;timestamp;P1;durP1;ratioP1;P2;durP2;ratioP2
5787;SDS011;2920;48.158;12.254;2023-03-13T00:00:09;8.05;;;5.15;;
5787;SDS011;2920;48.158;12.254;2023-03-13T00:02:35;8.10;;;5.13;;
5787;SDS011;2920;48.158;12.254;2023-03-13T00:05:00;7.65;;;4.60;;
5787;SDS011;2920;48.158;12.254;2023-03-13T00:07:25;9.02;;;4.95;;
5787;SDS011;2920;48.158;12.254;2023-03-13T00:09:51;9.13;;;5.32;;
5787;SDS011;2920;48.158;12.254;2023-03-13T00:12:16;8.35;;;4.88;;
5787;SDS011;2920;48.158;12.254;2023-03-13T00:14:42;8.57;;;4.07;;
5787;SDS011;2920;48.158;12.254;2023-03-13T00:17:07;7.28;;;4.65;;
5787;SDS011;2920;48.158;12.254;2023-03-13T00:19:32;7.82;;;4.57;;
5787;SDS011;2920;48.158;12.254;2023-03-13T00:21:58;8.00;;;5.13;;
5787;SDS011;2920;48.158;12.254;2023-03-13T00:24:23;7.88;;;4.60;;
5787;SDS011;2920;48.158;12.254;2023-03-13T00:26:48;7.72;;;4.60;;
5787;SDS011;2920;48.158;12.254;2023-03-13T00:29:13;7.65;;;4.32;;
5787;SDS011;2920;48.158;12.254;2023-03-13T00:31:39;8.75;;;4.55;;
5787;SDS011;2920;48.158;12.254;2023-03-13T00:34:04;9.73;;;4.68;;
5787;SDS011;2920;48.158;12.254;2023-03-13T00:36:31;6.55;;;3.85;;
5787;SDS011;2920;48.158;12.254;2023-03-13T00:38:58;7.53;;;4.80;;
5787;SDS011;2920;48.158;12.254;2023-03-13T00:41:27;8.20;;;4.70;;
5787;SDS011;2920;48.158;12.254;2023-03-13T00:46:20;7.85;;;4.45;;
5787;SDS011;2920;48.158;12.254;2023-03-13T00:48:46;5.63;;;4.20;;
5787;SDS011;2920;48.158;12.254;2023-03-13T00:51:12;5.05;;;3.53;;
5787;SDS011;2920;48.158;12.254;2023-03-13T00:53:39;7.00;;;3.88;;
5787;SDS011;2920;48.158;12.254;2023-03-13T00:56:05;6.80;;;4.40;;
5787;SDS011;2920;48.158;12.254;2023-03-13T00:58:33;6.30;;;3.53;;
5787;SDS011;2920;48.158;12.254;2023-03-13T01:01:13;5.15;;;2.97;;
5787;SDS011;2920;48.158;12.254;2023-03-13T01:03:51;8.38;;;4.38;;
5787;SDS011;2920;48.158;12.254;2023-03-13T01:06:20;5.60;;;3.92;;
5787;SDS011;2920;48.158;12.254;2023-03-13T01:08:47;6.93;;;4.70;;
5787;SDS011;2920;48.158;12.254;2023-03-13T01:11:14;10.38;;;4.95;;
5787;SDS011;2920;48.158;12.254;2023-03-13T01:13:41;9.00;;;5.10;;
5787;SDS011;2920;48.158;12.254;2023-03-13T01:16:08;8.02;;;5.00;;
5787;SDS011;2920;48.158;12.254;2023-03-13T01:18:35;7.35;;;4.70;;
5787;SDS011;2920;48.158;12.254;2023-03-13T01:21:02;7.07;;;4.78;;
5787;SDS011;2920;48.158;12.254;2023-03-13T01:23:29;8.98;;;5.00;;
5787;SDS011;2920;48.158;12.254;2023-03-13T01:25:54;7.25;;;4.90;;
5787;SDS011;2920;48.158;12.254;2023-03-13T01:28:20;8.32;;;5.00;;
5787;SDS011;2920;48.158;12.254;2023-03-13T01:30:46;8.48;;;4.82;;
5787;SDS011;2920;48.158;12.254;2023-03-13T01:33:11;8.38;;;4.82;;
5787;SDS011;2920;48.158;12.254;2023-03-13T01:35:37;6.68;;;4.65;;
5787;SDS011;2920;48.158;12.254;2023-03-13T01:38:02;9.68;;;4.07;;
5787;SDS011;2920;48.158;12.254;2023-03-13T01:40:27;7.38;;;4.30;;
5787;SDS011;2920;48.158;12.254;2023-03-13T01:42:53;7.68;;;3.80;;
5787;SDS011;2920;48.158;12.254;2023-03-13T01:48:24;4.85;;;3.42;;
5787;SDS011;2920;48.158;12.254;2023-03-13T01:50:54;5.70;;;3.17;;
5787;SDS011;2920;48.158;12.254;2023-03-13T01:53:21;5.63;;;3.35;;
5787;SDS011;2920;48.158;12.254;2023-03-13T01:55:46;5.90;;;3.88;;
5787;SDS011;2920;48.158;12.254;2023-03-13T01:58:12;6.78;;;4.00;;
5787;SDS011;2920;48.158;12.254;2023-03-13T02:00:37;8.18;;;4.00;;
5787;SDS011;2920;48.158;12.254;2023-03-13T02:03:06;7.03;;;4.50;;
5787;SDS011;2920;48.158;12.254;2023-03-13T02:05:34;7.10;;;4.07;;
5787;SDS011;2920;48.158;12.254;2023-03-13T02:11:51;9.07;;;4.13;;
5787;SDS011;2920;48.158;12.254;2023-03-13T02:14:08;8.25;;;4.25;;
5787;SDS011;2920;48.158;12.254;2023-03-13T02:16:34;6.60;;;3.97;;
5787;SDS011;2920;48.158;12.254;2023-03-13T02:19:01;6.80;;;4.20;;
5787;SDS011;2920;48.158;12.254;2023-03-13T02:22:11;7.22;;;4.07;;
5787;SDS011;2920;48.158;12.254;2023-03-13T02:24:22;6.80;;;4.28;;
5787;SDS011;2920;48.158;12.254;2023-03-13T02:27:02;6.60;;;4.32;;
5787;SDS011;2920;48.158;12.254;2023-03-13T02:29:27;5.72;;;3.90;;
5787;SDS011;2920;48.158;12.254;2023-03-13T02:31:53;7.93;;;4.40;;
5787;SDS011;2920;48.158;12.254;2023-03-13T02:34:20;5.65;;;3.67;;
5787;SDS011;2920;48.158;12.254;2023-03-13T02:36:48;7.07;;;4.75;;
5787;SDS011;2920;48.158;12.254;2023-03-13T02:39:14;5.32;;;3.50;;
5787;SDS011;2920;48.158;12.254;2023-03-13T02:41:40;4.55;;;2.88;;
5787;SDS011;2920;48.158;12.254;2023-03-13T02:44:06;6.78;;;4.45;;
5787;SDS011;2920;48.158;12.254;2023-03-13T02:46:42;7.22;;;4.40;;
5787;SDS011;2920;48.158;12.254;2023-03-13T02:49:25;4.25;;;2.97;;
5787;SDS011;2920;48.158;12.254;2023-03-13T02:51:54;7.07;;;3.60;;
5787;SDS011;2920;48.158;12.254;2023-03-13T02:54:24;5.13;;;3.88;;
5787;SDS011;2920;48.158;12.254;2023-03-13T02:56:53;5.78;;;3.15;;
5787;SDS011;2920;48.158;12.254;2023-03-13T02:59:20;5.07;;;3.35;;
5787;SDS011;2920;48.158;12.254;2023-03-13T03:01:45;7.55;;;4.18;;
5787;SDS011;2920;48.158;12.254;2023-03-13T03:04:11;8.18;;;4.60;;
5787;SDS011;2920;48.158;12.254;2023-03-13T03:06:36;7.93;;;4.95;;
5787;SDS011;2920;48.158;12.254;2023-03-13T03:09:01;4.43;;;3.30;;
5787;SDS011;2920;48.158;12.254;2023-03-13T03:11:27;5.13;;;3.13;;
5787;SDS011;2920;48.158;12.254;2023-03-13T03:13:52;6.75;;;3.92;;
5787;SDS011;2920;48.158;12.254;2023-03-13T03:16:17;9.52;;;4.18;;
5787;SDS011;2920;48.158;12.254;2023-03-13T03:18:43;6.18;;;3.97;;
5787;SDS011;2920;48.158;12.254;2023-03-13T03:21:08;6.30;;;4.15;;
5787;SDS011;2920;48.158;12.254;2023-03-13T03:23:34;6.28;;;3.63;;
5787;SDS011;2920;48.158;12.254;2023-03-13T03:26:00;7.03;;;3.88;;
5787;SDS011;2920;48.158;12.254;2023-03-13T03:28:25;7.25;;;4.55;;
5787;SDS011;2920;48.158;12.254;2023-03-13T03:30:51;7.43;;;3.92;;
5787;SDS011;2920;48.158;12.254;2023-03-13T03:33:18;6.60;;;3.60;;
5787;SDS011;2920;48.158;12.254;2023-03-13T03:35:46;7.20;;;3.92;;
5787;SDS011;2920;48.158;12.254;2023-03-13T03:38:12;7.55;;;3.83;;
5787;SDS011;2920;48.158;12.254;2023-03-13T03:40:37;8.15;;;4.45;;
5787;SDS011;2920;48.158;12.254;2023-03-13T03:43:03;8.20;;;4.40;;
5787;SDS011;2920;48.158;12.254;2023-03-13T03:45:28;9.00;;;5.20;;
5787;SDS011;2920;48.158;12.254;2023-03-13T03:47:53;8.15;;;4.38;;
5787;SDS011;2920;48.158;12.254;2023-03-13T03:50:19;8.25;;;5.28;;
5787;SDS011;2920;48.158;12.254;2023-03-13T03:52:44;8.63;;;4.45;;
5787;SDS011;2920;48.158;12.254;2023-03-13T03:55:09;8.35;;;5.10;;
5787;SDS011;2920;48.158;12.254;2023-03-13T03:57:34;9.55;;;5.07;;
5787;SDS011;2920;48.158;12.254;2023-03-13T04:00:00;10.43;;;5.40;;
5787;SDS011;2920;48.158;12.254;2023-03-13T04:02:25;9.82;;;5.20;;
5787;SDS011;2920;48.158;12.254;2023-03-13T04:04:50;9.70;;;5.22;;
5787;SDS011;2920;48.158;12.254;2023-03-13T04:07:16;14.18;;;6.00;;
5787;SDS011;2920;48.158;12.254;2023-03-13T04:09:41;11.80;;;5.53;;
5787;SDS011;2920;48.158;12.254;2023-03-13T04:12:06;12.23;;;5.97;;
5787;SDS011;2920;48.158;12.254;2023-03-13T04:14:32;12.68;;;5.78;;
5787;SDS011;2920;48.158;12.254;2023-03-13T04:16:57;8.75;;;5.25;;
5787;SDS011;2920;48.158;12.254;2023-03-13T04:19:23;12.88;;;6.40;;
5787;SDS011;2920;48.158;12.254;2023-03-13T04:21:48;11.85;;;6.43;;
5787;SDS011;2920;48.158;12.254;2023-03-13T04:24:13;14.35;;;7.13;;
5787;SDS011;2920;48.158;12.254;2023-03-13T04:26:39;11.85;;;5.75;;
5787;SDS011;2920;48.158;12.254;2023-03-13T04:29:04;12.52;;;6.45;;
5787;SDS011;2920;48.158;12.254;2023-03-13T04:31:30;12.35;;;6.13;;
5787;SDS011;2920;48.158;12.254;2023-03-13T04:33:56;11.07;;;5.35;;
5787;SDS011;2920;48.158;12.254;2023-03-13T04:36:21;12.00;;;6.13;;
5787;SDS011;2920;48.158;12.254;2023-03-13T04:38:46;10.68;;;5.00;;
5787;SDS011;2920;48.158;12.254;2023-03-13T04:41:12;8.68;;;4.78;;
5787;SDS011;2920;48.158;12.254;2023-03-13T04:43:37;11.95;;;6.10;;
5787;SDS011;2920;48.158;12.254;2023-03-13T04:46:02;11.82;;;6.65;;
5787;SDS011;2920;48.158;12.254;2023-03-13T04:48:28;11.38;;;6.82;;
5787;SDS011;2920;48.158;12.254;2023-03-13T04:50:53;12.02;;;6.00;;
5787;SDS011;2920;48.158;12.254;2023-03-13T04:53:18;11.63;;;6.05;;
5787;SDS011;2920;48.158;12.254;2023-03-13T04:55:43;11.55;;;6.18;;
5787;SDS011;2920;48.158;12.254;2023-03-13T04:58:09;10.75;;;5.95;;
5787;SDS011;2920;48.158;12.254;2023-03-13T05:00:34;10.77;;;5.80;;
5787;SDS011;2920;48.158;12.254;2023-03-13T05:02:59;9.50;;;5.05;;
5787;SDS011;2920;48.158;12.254;2023-03-13T05:05:25;11.75;;;7.10;;
5787;SDS011;2920;48.158;12.254;2023-03-13T05:07:50;42.47;;;21.38;;
5787;SDS011;2920;48.158;12.254;2023-03-13T05:10:15;16.70;;;7.43;;
5787;SDS011;2920;48.158;12.254;2023-03-13T05:12:41;15.32;;;7.47;;
5787;SDS011;2920;48.158;12.254;2023-03-13T05:15:06;13.75;;;7.97;;
5787;SDS011;2920;48.158;12.254;2023-03-13T05:17:32;11.63;;;6.55;;
5787;SDS011;2920;48.158;12.254;2023-03-13T05:19:57;16.73;;;8.73;;
5787;SDS011;2920;48.158;12.254;2023-03-13T05:22:23;13.52;;;7.53;;
5787;SDS011;2920;48.158;12.254;2023-03-13T05:24:48;12.68;;;6.07;;
5787;SDS011;2920;48.158;12.254;2023-03-13T05:27:13;12.55;;;6.18;;
5787;SDS011;2920;48.158;12.254;2023-03-13T05:29:39;16.45;;;9.52;;
5787;SDS011;2920;48.158;12.254;2023-03-13T05:32:04;11.32;;;6.13;;
5787;SDS011;2920;48.158;12.254;2023-03-13T05:34:30;12.15;;;7.07;;
5787;SDS011;2920;48.158;12.254;2023-03-13T05:36:55;12.68;;;6.65;;
5787;SDS011;2920;48.158;12.254;2023-03-13T05:39:20;12.43;;;6.82;;
5787;SDS011;2920;48.158;12.254;2023-03-13T05:41:45;12.18;;;6.63;;
5787;SDS011;2920;48.158;12.254;2023-03-13T05:44:11;11.60;;;6.65;;
5787;SDS011;2920;48.158;12.254;2023-03-13T05:46:36;13.20;;;6.78;;
5787;SDS011;2920;48.158;12.254;2023-03-13T05:49:01;11.35;;;6.15;;
5787;SDS011;2920;48.158;12.254;2023-03-13T05:51:27;14.43;;;7.50;;
5787;SDS011;2920;48.158;12.254;2023-03-13T05:53:52;13.27;;;6.90;;
5787;SDS011;2920;48.158;12.254;2023-03-13T05:56:17;12.73;;;7.03;;
5787;SDS011;2920;48.158;12.254;2023-03-13T05:58:42;12.98;;;6.25;;
5787;SDS011;2920;48.158;12.254;2023-03-13T06:01:09;13.90;;;6.80;;
5787;SDS011;2920;48.158;12.254;2023-03-13T06:03:36;11.52;;;5.97;;
5787;SDS011;2920;48.158;12.254;2023-03-13T06:06:01;13.63;;;7.82;;
5787;SDS011;2920;48.158;12.254;2023-03-13T06:08:27;10.48;;;6.22;;
5787;SDS011;2920;48.158;12.254;2023-03-13T06:10:52;11.75;;;6.45;;
5787;SDS011;2920;48.158;12.254;2023-03-13T06:13:17;12.50;;;6.75;;
5787;SDS011;2920;48.158;12.254;2023-03-13T06:15:49;12.30;;;6.93;;
5787;SDS011;2920;48.158;12.254;2023-03-13T06:18:15;12.07;;;7.72;;
5787;SDS011;2920;48.158;12.254;2023-03-13T06:20:40;14.80;;;7.25;;
5787;SDS011;2920;48.158;12.254;2023-03-13T06:23:05;13.23;;;6.10;;
5787;SDS011;2920;48.158;12.254;2023-03-13T06:25:31;14.75;;;7.30;;
5787;SDS011;2920;48.158;12.254;2023-03-13T06:27:58;11.80;;;6.75;;
5787;SDS011;2920;48.158;12.254;2023-03-13T06:30:24;13.25;;;7.10;;
5787;SDS011;2920;48.158;12.254;2023-03-13T06:32:49;12.40;;;7.43;;
5787;SDS011;2920;48.158;12.254;2023-03-13T06:35:14;12.88;;;6.80;;
5787;SDS011;2920;48.158;12.254;2023-03-13T06:37:40;14.00;;;7.03;;
5787;SDS011;2920;48.158;12.254;2023-03-13T06:40:05;11.48;;;6.82;;
5787;SDS011;2920;48.158;12.254;2023-03-13T06:42:31;11.73;;;6.35;;
5787;SDS011;2920;48.158;12.254;2023-03-13T06:44:56;11.57;;;6.30;;
5787;SDS011;2920;48.158;12.254;2023-03-13T06:47:21;12.57;;;7.53;;
5787;SDS011;2920;48.158;12.254;2023-03-13T06:49:47;12.75;;;7.03;;
5787;SDS011;2920;48.158;12.254;2023-03-13T06:52:12;14.07;;;7.57;;
5787;SDS011;2920;48.158;12.254;2023-03-13T06:54:37;11.98;;;6.95;;
5787;SDS011;2920;48.158;12.254;2023-03-13T06:57:02;14.35;;;6.63;;
5787;SDS011;2920;48.158;12.254;2023-03-13T06:59:28;10.32;;;5.65;;
5787;SDS011;2920;48.158;12.254;2023-03-13T07:01:53;11.73;;;6.63;;
5787;SDS011;2920;48.158;12.254;2023-03-13T07:04:18;10.90;;;6.38;;
5787;SDS011;2920;48.158;12.254;2023-03-13T07:06:44;15.23;;;9.35;;
5787;SDS011;2920;48.158;12.254;2023-03-13T07:09:09;10.43;;;5.30;;
5787;SDS011;2920;48.158;12.254;2023-03-13T07:11:35;9.63;;;6.10;;
5787;SDS011;2920;48.158;12.254;2023-03-13T07:14:00;10.90;;;6.32;;
5787;SDS011;2920;48.158;12.254;2023-03-13T07:16:26;9.85;;;5.97;;
5787;SDS011;2920;48.158;12.254;2023-03-13T07:18:51;10.20;;;6.28;;
5787;SDS011;2920;48.158;12.254;2023-03-13T07:21:16;11.27;;;6.43;;
5787;SDS011;2920;48.158;12.254;2023-03-13T07:23:42;8.95;;;4.97;;
5787;SDS011;2920;48.158;12.254;2023-03-13T07:26:11;9.57;;;6.07;;
5787;SDS011;2920;48.158;12.254;2023-03-13T07:28:37;9.93;;;6.00;;
5787;SDS011;2920;48.158;12.254;2023-03-13T07:33:32;10.20;;;6.13;;
5787;SDS011;2920;48.158;12.254;2023-03-13T07:35:57;7.85;;;4.68;;
5787;SDS011;2920;48.158;12.254;2023-03-13T07:38:23;7.95;;;5.20;;
5787;SDS011;2920;48.158;12.254;2023-03-13T07:43:13;8.00;;;4.78;;
5787;SDS011;2920;48.158;12.254;2023-03-13T07:45:39;9.40;;;4.43;;
5787;SDS011;2920;48.158;12.254;2023-03-13T07:48:04;8.60;;;5.25;;
5787;SDS011;2920;48.158;12.254;2023-03-13T07:50:29;6.65;;;4.22;;
5787;SDS011;2920;48.158;12.254;2023-03-13T07:52:55;8.40;;;5.03;;
5787;SDS011;2920;48.158;12.254;2023-03-13T07:55:20;7.47;;;4.93;;
5787;SDS011;2920;48.158;12.254;2023-03-13T07:57:45;8.18;;;5.28;;
5787;SDS011;2920;48.158;12.254;2023-03-13T08:00:10;21.20;;;11.32;;
5787;SDS011;2920;48.158;12.254;2023-03-13T08:02:40;6.95;;;4.85;;
5787;SDS011;2920;48.158;12.254;2023-03-13T08:05:05;9.98;;;5.65;;
5787;SDS011;2920;48.158;12.254;2023-03-13T08:07:31;17.25;;;10.98;;
5787;SDS011;2920;48.158;12.254;2023-03-13T08:09:56;16.27;;;9.30;;
5787;SDS011;2920;48.158;12.254;2023-03-13T08:12:21;9.43;;;6.10;;
5787;SDS011;2920;48.158;12.254;2023-03-13T08:14:47;10.57;;;5.50;;
5787;SDS011;2920;48.158;12.254;2023-03-13T08:17:12;8.23;;;5.00;;
5787;SDS011;2920;48.158;12.254;2023-03-13T08:19:37;9.07;;;5.30;;
5787;SDS011;2920;48.158;12.254;2023-03-13T08:22:03;7.45;;;4.75;;
5787;SDS011;2920;48.158;12.254;2023-03-13T08:24:28;8.10;;;4.70;;
5787;SDS011;2920;48.158;12.254;2023-03-13T08:26:53;7.00;;;4.75;;
5787;SDS011;2920;48.158;12.254;2023-03-13T08:29:19;7.38;;;4.38;;
5787;SDS011;2920;48.158;12.254;2023-03-13T08:31:45;6.78;;;4.30;;
5787;SDS011;2920;48.158;12.254;2023-03-13T08:34:12;7.30;;;4.07;;
5787;SDS011;2920;48.158;12.254;2023-03-13T08:36:38;7.65;;;4.50;;
5787;SDS011;2920;48.158;12.254;2023-03-13T08:39:05;7.28;;;4.68;;
5787;SDS011;2920;48.158;12.254;2023-03-13T08:41:32;7.47;;;4.55;;
5787;SDS011;2920;48.158;12.254;2023-03-13T08:44:00;8.82;;;5.15;;
5787;SDS011;2920;48.158;12.254;2023-03-13T08:46:27;10.40;;;5.32;;
5787;SDS011;2920;48.158;12.254;2023-03-13T08:48:53;7.72;;;5.00;;
5787;SDS011;2920;48.158;12.254;2023-03-13T08:51:19;8.88;;;4.65;;
5787;SDS011;2920;48.158;12.254;2023-03-13T08:53:46;11.95;;;4.63;;
5787;SDS011;2920;48.158;12.254;2023-03-13T08:56:13;8.77;;;4.57;;
5787;SDS011;2920;48.158;12.254;2023-03-13T08:58:39;7.95;;;4.47;;
5787;SDS011;2920;48.158;12.254;2023-03-13T09:01:05;10.48;;;4.10;;
5787;SDS011;2920;48.158;12.254;2023-03-13T09:03:32;7.05;;;4.25;;
5787;SDS011;2920;48.158;12.254;2023-03-13T09:05:58;8.85;;;4.25;;
5787;SDS011;2920;48.158;12.254;2023-03-13T09:08:24;8.48;;;4.82;;
5787;SDS011;2920;48.158;12.254;2023-03-13T09:10:56;9.88;;;4.72;;
5787;SDS011;2920;48.158;12.254;2023-03-13T09:13:26;13.93;;;4.53;;
5787;SDS011;2920;48.158;12.254;2023-03-13T09:15:52;8.38;;;4.50;;
5787;SDS011;2920;48.158;12.254;2023-03-13T09:18:23;6.47;;;3.65;;
5787;SDS011;2920;48.158;12.254;2023-03-13T09:20:49;6.57;;;4.00;;
5787;SDS011;2920;48.158;12.254;2023-03-13T09:23:14;5.53;;;4.07;;
5787;SDS011;2920;48.158;12.254;2023-03-13T09:25:40;6.50;;;3.85;;
5787;SDS011;2920;48.158;12.254;2023-03-13T09:28:05;6.63;;;3.85;;
5787;SDS011;2920;48.158;12.254;2023-03-13T09:30:30;6.00;;;3.80;;
5787;SDS011;2920;48.158;12.254;2023-03-13T09:32:56;6.03;;;3.50;;
5787;SDS011;2920;48.158;12.254;2023-03-13T09:35:21;5.60;;;3.22;;
5787;SDS011;2920;48.158;12.254;2023-03-13T09:37:46;5.75;;;3.22;;
5787;SDS011;2920;48.158;12.254;2023-03-13T09:40:16;4.22;;;2.80;;
5787;SDS011;2920;48.158;12.254;2023-03-13T09:42:47;5.57;;;3.20;;
5787;SDS011;2920;48.158;12.254;2023-03-13T09:45:17;4.35;;;2.97;;
5787;SDS011;2920;48.158;12.254;2023-03-13T09:47:56;5.93;;;3.42;;
5787;SDS011;2920;48.158;12.254;2023-03-13T09:50:28;4.05;;;2.75;;
5787;SDS011;2920;48.158;12.254;2023-03-13T09:53:00;3.53;;;2.55;;
5787;SDS011;2920;48.158;12.254;2023-03-13T09:55:32;3.53;;;2.55;;
5787;SDS011;2920;48.158;12.254;2023-03-13T09:58:32;4.35;;;2.70;;
5787;SDS011;2920;48.158;12.254;2023-03-13T10:00:57;4.43;;;2.97;;
5787;SDS011;2920;48.158;12.254;2023-03-13T10:03:34;3.75;;;2.53;;
5787;SDS011;2920;48.158;12.254;2023-03-13T10:06:05;5.55;;;2.80;;
5787;SDS011;2920;48.158;12.254;2023-03-13T10:08:37;3.70;;;2.60;;
5787;SDS011;2920;48.158;12.254;2023-03-13T10:11:08;3.65;;;2.47;;
5787;SDS011;2920;48.158;12.254;2023-03-13T10:13:41;5.90;;;3.20;;
5787;SDS011;2920;48.158;12.254;2023-03-13T10:16:10;4.70;;;2.72;;
5787;SDS011;2920;48.158;12.254;2023-03-13T10:18:41;3.42;;;2.63;;
5787;SDS011;2920;48.158;12.254;2023-03-13T10:21:42;3.10;;;2.45;;
5787;SDS011;2920;48.158;12.254;2023-03-13T10:26:44;4.45;;;2.88;;
5787;SDS011;2920;48.158;12.254;2023-03-13T10:29:20;4.13;;;2.53;;
5787;SDS011;2920;48.158;12.254;2023-03-13T10:34:26;3.38;;;2.47;;
5787;SDS011;2920;48.158;12.254;2023-03-13T10:36:54;4.03;;;3.22;;
5787;SDS011;2920;48.158;12.254;2023-03-13T10:39:23;3.25;;;2.15;;
5787;SDS011;2920;48.158;12.254;2023-03-13T10:41:50;2.88;;;1.98;;
5787;SDS011;2920;48.158;12.254;2023-03-13T10:44:18;2.97;;;2.17;;
5787;SDS011;2920;48.158;12.254;2023-03-13T10:46:46;2.65;;;2.20;;
5787;SDS011;2920;48.158;12.254;2023-03-13T10:49:19;3.67;;;2.03;;
5787;SDS011;2920;48.158;12.254;2023-03-13T10:54:15;2.95;;;2.10;;
5787;SDS011;2920;48.158;12.254;2023-03-13T10:56:50;4.65;;;2.22;;
5787;SDS011;2920;48.158;12.254;2023-03-13T10:59:18;2.15;;;1.65;;
5787;SDS011;2920;48.158;12.254;2023-03-13T11:01:46;2.13;;;1.60;;
5787;SDS011;2920;48.158;12.254;2023-03-13T11:07:20;3.40;;;1.80;;
5787;SDS011;2920;48.158;12.254;2023-03-13T11:09:57;2.22;;;1.70;;
5787;SDS011;2920;48.158;12.254;2023-03-13T11:12:28;2.78;;;1.58;;
5787;SDS011;2920;48.158;12.254;2023-03-13T11:14:58;2.40;;;1.85;;
5787;SDS011;2920;48.158;12.254;2023-03-13T11:20:02;2.20;;;1.60;;
5787;SDS011;2920;48.158;12.254;2023-03-13T11:22:47;1.90;;;1.40;;
5787;SDS011;2920;48.158;12.254;2023-03-13T11:31:12;4.13;;;1.50;;
5787;SDS011;2920;48.158;12.254;2023-03-13T12:04:47;2.33;;;1.50;;
5787;SDS011;2920;48.158;12.254;2023-03-13T12:07:33;2.22;;;1.55;;
5787;SDS011;2920;48.158;12.254;2023-03-13T12:13:02;2.30;;;1.60;;
5787;SDS011;2920;48.158;12.254;2023-03-13T12:15:45;2.03;;;1.33;;
5787;SDS011;2920;48.158;12.254;2023-03-13T12:18:16;4.78;;;1.40;;
5787;SDS011;2920;48.158;12.254;2023-03-13T12:26:17;2.00;;;1.23;;
5787;SDS011;2920;48.158;12.254;2023-03-13T12:36:30;2.40;;;1.10;;
5787;SDS011;2920;48.158;12.254;2023-03-13T12:41:42;1.35;;;1.25;;
5787;SDS011;2920;48.158;12.254;2023-03-13T12:44:14;1.67;;;1.27;;
5787;SDS011;2920;48.158;12.254;2023-03-13T12:46:45;1.63;;;1.20;;
5787;SDS011;2920;48.158;12.254;2023-03-13T13:00:36;1.52;;;1.20;;
5787;SDS011;2920;48.158;12.254;2023-03-13T13:03:08;1.73;;;1.05;;
5787;SDS011;2920;48.158;12.254;2023-03-13T13:05:56;1.20;;;1.08;;
5787;SDS011;2920;48.158;12.254;2023-03-13T13:08:33;3.90;;;1.15;;
5787;SDS011;2920;48.158;12.254;2023-03-13T13:16:43;1.38;;;1.00;;
5787;SDS011;2920;48.158;12.254;2023-03-13T13:24:52;0.80;;;0.80;;
5787;SDS011;2920;48.158;12.254;2023-03-13T13:27:52;2.22;;;0.98;;
5787;SDS011;2920;48.158;12.254;2023-03-13T13:32:49;1.75;;;1.00;;
5787;SDS011;2920;48.158;12.254;2023-03-13T13:40:56;1.73;;;1.40;;
5787;SDS011;2920;48.158;12.254;2023-03-13T13:43:35;3.38;;;1.15;;
5787;SDS011;2920;48.158;12.254;2023-03-13T13:48:41;1.40;;;1.20;;
5787;SDS011;2920;48.158;12.254;2023-03-13T13:53:42;1.55;;;1.20;;
5787;SDS011;2920;48.158;12.254;2023-03-13T13:58:53;1.48;;;1.27;;
5787;SDS011;2920;48.158;12.254;2023-03-13T14:01:21;1.00;;;0.93;;
5787;SDS011;2920;48.158;12.254;2023-03-13T14:03:46;1.67;;;1.02;;
5787;SDS011;2920;48.158;12.254;2023-03-13T14:06:22;2.40;;;1.00;;
5787;SDS011;2920;48.158;12.254;2023-03-13T14:08:50;0.95;;;0.82;;
5787;SDS011;2920;48.158;12.254;2023-03-13T14:11:23;1.15;;;1.05;;
5787;SDS011;2920;48.158;12.254;2023-03-13T14:14:14;2.20;;;0.90;;
5787;SDS011;2920;48.158;12.254;2023-03-13T14:16:37;1.33;;;1.10;;
5787;SDS011;2920;48.158;12.254;2023-03-13T14:19:02;1.55;;;1.13;;
5787;SDS011;2920;48.158;12.254;2023-03-13T14:21:28;1.92;;;1.30;;
5787;SDS011;2920;48.158;12.254;2023-03-13T14:23:53;5.30;;;1.10;;
5787;SDS011;2920;48.158;12.254;2023-03-13T14:26:20;1.63;;;1.15;;
5787;SDS011;2920;48.158;12.254;2023-03-13T14:28:48;1.17;;;0.95;;
5787;SDS011;2920;48.158;12.254;2023-03-13T14:31:22;2.85;;;1.10;;
5787;SDS011;2920;48.158;12.254;2023-03-13T14:33:55;2.55;;;1.00;;
5787;SDS011;2920;48.158;12.254;2023-03-13T14:36:22;1.40;;;1.17;;
5787;SDS011;2920;48.158;12.254;2023-03-13T14:38:51;1.35;;;1.05;;
5787;SDS011;2920;48.158;12.254;2023-03-13T14:41:31;1.45;;;1.17;;
5787;SDS011;2920;48.158;12.254;2023-03-13T14:44:13;1.95;;;1.10;;
5787;SDS011;2920;48.158;12.254;2023-03-13T14:46:53;1.88;;;0.90;;
5787;SDS011;2920;48.158;12.254;2023-03-13T14:49:21;0.73;;;0.73;;
5787;SDS011;2920;48.158;12.254;2023-03-13T14:52:12;1.40;;;1.13;;
5787;SDS011;2920;48.158;12.254;2023-03-13T14:54:52;1.20;;;0.90;;
5787;SDS011;2920;48.158;12.254;2023-03-13T14:57:23;1.35;;;1.20;;
5787;SDS011;2920;48.158;12.254;2023-03-13T14:59:51;1.42;;;1.08;;
5787;SDS011;2920;48.158;12.254;2023-03-13T15:02:19;1.15;;;0.98;;
5787;SDS011;2920;48.158;12.254;2023-03-13T15:09:51;0.65;;;0.65;;
5787;SDS011;2920;48.158;12.254;2023-03-13T15:12:18;1.58;;;1.00;;
5787;SDS011;2920;48.158;12.254;2023-03-13T15:14:46;0.98;;;0.80;;
5787;SDS011;2920;48.158;12.254;2023-03-13T15:17:20;1.42;;;1.13;;
5787;SDS011;2920;48.158;12.254;2023-03-13T15:19:47;0.80;;;0.80;;
5787;SDS011;2920;48.158;12.254;2023-03-13T15:22:23;1.10;;;1.00;;
5787;SDS011;2920;48.158;12.254;2023-03-13T15:24:50;3.20;;;0.90;;
5787;SDS011;2920;48.158;12.254;2023-03-13T15:27:20;1.80;;;0.90;;
5787;SDS011;2920;48.158;12.254;2023-03-13T15:29:47;1.67;;;0.90;;
5787;SDS011;2920;48.158;12.254;2023-03-13T15:32:26;2.72;;;0.90;;
5787;SDS011;2920;48.158;12.254;2023-03-13T15:34:53;1.63;;;1.10;;
5787;SDS011;2920;48.158;12.254;2023-03-13T15:37:23;1.25;;;0.90;;
5787;SDS011;2920;48.158;12.254;2023-03-13T15:39:49;1.10;;;1.00;;
5787;SDS011;2920;48.158;12.254;2023-03-13T15:42:15;1.70;;;1.08;;
5787;SDS011;2920;48.158;12.254;2023-03-13T15:44:40;1.10;;;1.00;;
5787;SDS011;2920;48.158;12.254;2023-03-13T15:47:08;2.17;;;1.00;;
5787;SDS011;2920;48.158;12.254;2023-03-13T15:49:34;1.27;;;1.00;;
5787;SDS011;2920;48.158;12.254;2023-03-13T15:51:59;1.55;;;1.02;;
5787;SDS011;2920;48.158;12.254;2023-03-13T15:54:24;1.35;;;1.25;;
5787;SDS011;2920;48.158;12.254;2023-03-13T15:56:50;2.17;;;1.17;;
5787;SDS011;2920;48.158;12.254;2023-03-13T15:59:16;1.23;;;0.90;;
5787;SDS011;2920;48.158;12.254;2023-03-13T16:01:42;2.33;;;1.40;;
5787;SDS011;2920;48.158;12.254;2023-03-13T16:04:09;1.70;;;1.23;;
5787;SDS011;2920;48.158;12.254;2023-03-13T16:06:35;2.10;;;1.55;;
5787;SDS011;2920;48.158;12.254;2023-03-13T16:09:01;3.63;;;1.40;;
5787;SDS011;2920;48.158;12.254;2023-03-13T16:11:29;1.43;;;1.10;;
5787;SDS011;2920;48.158;12.254;2023-03-13T16:13:54;1.15;;;1.05;;
5787;SDS011;2920;48.158;12.254;2023-03-13T16:16:26;1.40;;;1.10;;
5787;SDS011;2920;48.158;12.254;2023-03-13T16:18:53;1.25;;;1.10;;
5787;SDS011;2920;48.158;12.254;2023-03-13T16:21:23;1.70;;;1.10;;
5787;SDS011;2920;48.158;12.254;2023-03-13T16:23:52;1.08;;;0.80;;
5787;SDS011;2920;48.158;12.254;2023-03-13T16:26:22;1.40;;;0.95;;
5787;SDS011;2920;48.158;12.254;2023-03-13T16:28:49;1.55;;;0.90;;
5787;SDS011;2920;48.158;12.254;2023-03-13T16:31:16;5.50;;;1.08;;
5787;SDS011;2920;48.158;12.254;2023-03-13T16:33:43;1.85;;;1.00;;
5787;SDS011;2920;48.158;12.254;2023-03-13T16:36:12;1.02;;;0.90;;
5787;SDS011;2920;48.158;12.254;2023-03-13T16:38:44;0.95;;;0.80;;
5787;SDS011;2920;48.158;12.254;2023-03-13T16:41:14;1.95;;;0.75;;
5787;SDS011;2920;48.158;12.254;2023-03-13T16:43:41;3.47;;;1.20;;
5787;SDS011;2920;48.158;12.254;2023-03-13T16:46:09;1.67;;;1.05;;
5787;SDS011;2920;48.158;12.254;2023-03-13T16:48:36;1.75;;;1.00;;
5787;SDS011;2920;48.158;12.254;2023-03-13T16:51:01;1.00;;;0.80;;
5787;SDS011;2920;48.158;12.254;2023-03-13T16:53:27;1.17;;;1.08;;
5787;SDS011;2920;48.158;12.254;2023-03-13T16:55:52;1.77;;;0.90;;
5787;SDS011;2920;48.158;12.254;2023-03-13T16:58:18;3.03;;;1.00;;
5787;SDS011;2920;48.158;12.254;2023-03-13T17:00:44;1.65;;;0.90;;
5787;SDS011;2920;48.158;12.254;2023-03-13T17:03:09;1.38;;;1.08;;
5787;SDS011;2920;48.158;12.254;2023-03-13T17:05:34;1.27;;;1.17;;
5787;SDS011;2920;48.158;12.254;2023-03-13T17:08:00;1.15;;;0.80;;